createdAt,value
2024-03-10T00:00:27.360Z,100.00
2024-03-10T00:03:15.841Z,100.00
2024-03-10T00:05:44.642Z,100.00
2024-03-10T00:08:12.864Z,100.00
2024-03-10T00:10:42.921Z,100.00
2024-03-10T00:13:11.385Z,100.00
2024-03-10T00:15:39.787Z,100.00
2024-03-10T00:18:08.493Z,100.00
2024-03-10T00:20:36.893Z,100.00
2024-03-10T00:23:05.236Z,100.00
2024-03-10T00:25:33.677Z,100.00
2024-03-10T00:28:01.908Z,100.00
2024-03-10T00:30:30.122Z,100.00
2024-03-10T00:32:58.782Z,100.00
2024-03-10T00:35:27.154Z,100.00
2024-03-10T00:37:55.615Z,100.00
2024-03-10T00:40:25.404Z,100.00
2024-03-10T00:42:55.034Z,100.00
2024-03-10T00:45:24.362Z,100.00
2024-03-10T00:47:56.208Z,100.00
2024-03-10T00:50:24.611Z,100.00
2024-03-10T00:52:53.351Z,100.00
2024-03-10T00:55:22.750Z,100.00
2024-03-10T00:57:51.491Z,100.00
2024-03-10T01:00:19.692Z,100.00
2024-03-10T01:02:49.562Z,100.00
2024-03-10T01:05:18.850Z,100.00
2024-03-10T01:07:47.287Z,100.00
2024-03-10T01:10:15.687Z,100.00
2024-03-10T01:12:44.411Z,100.00
2024-03-10T01:15:13.036Z,100.00
2024-03-10T01:17:41.474Z,100.00
2024-03-10T01:20:12.214Z,100.00
2024-03-10T01:22:40.914Z,100.00
2024-03-10T01:25:09.823Z,100.00
2024-03-10T01:27:37.953Z,100.00
2024-03-10T01:30:06.784Z,100.00
2024-03-10T01:32:35.477Z,100.00
2024-03-10T01:35:07.212Z,100.00
2024-03-10T01:37:36.745Z,100.00
2024-03-10T01:40:06.525Z,100.00
2024-03-10T01:42:34.907Z,100.00
2024-03-10T01:45:05.242Z,100.00
2024-03-10T01:47:34.212Z,100.00
2024-03-10T01:50:07.411Z,100.00
2024-03-10T01:52:36.513Z,100.00
2024-03-10T01:55:07.882Z,100.00
2024-03-10T01:57:38.264Z,100.00
2024-03-10T02:00:07.508Z,100.00
2024-03-10T02:02:42.635Z,100.00
2024-03-10T02:05:11.153Z,100.00
2024-03-10T02:07:39.482Z,100.00
2024-03-10T02:10:08.697Z,100.00
2024-03-10T02:12:39.102Z,100.00
2024-03-10T02:15:08.448Z,100.00
2024-03-10T02:17:38.180Z,100.00
2024-03-10T02:20:15.854Z,100.00
2024-03-10T02:22:45.326Z,100.00
2024-03-10T02:25:14.373Z,100.00
2024-03-10T02:27:46.272Z,100.00
2024-03-10T02:30:20.797Z,100.00
2024-03-10T02:33:07.973Z,100.00
2024-03-10T02:35:55.326Z,100.00
2024-03-10T02:38:41.816Z,100.00
2024-03-10T02:41:28.557Z,100.00
2024-03-10T02:44:15.332Z,100.00
2024-03-10T02:47:04.079Z,100.00
2024-03-10T02:49:32.403Z,100.00
2024-03-10T02:52:00.524Z,100.00
2024-03-10T02:54:28.844Z,100.00
2024-03-10T02:56:57.093Z,100.00
2024-03-10T02:59:26.330Z,100.00
2024-03-10T03:01:54.624Z,100.00
2024-03-10T03:04:22.919Z,100.00
2024-03-10T03:06:51.043Z,100.00
2024-03-10T03:09:21.679Z,100.00
2024-03-10T03:11:49.986Z,100.00
2024-03-10T03:14:19.551Z,100.00
2024-03-10T03:16:48.270Z,100.00
2024-03-10T03:19:16.852Z,100.00
2024-03-10T03:21:45.076Z,100.00
2024-03-10T03:24:15.134Z,100.00
2024-03-10T03:26:44.087Z,100.00
2024-03-10T03:29:12.670Z,100.00
2024-03-10T03:31:41.076Z,100.00
2024-03-10T03:34:09.987Z,100.00
2024-03-10T03:36:38.424Z,100.00
2024-03-10T03:39:07.433Z,100.00
2024-03-10T03:41:35.557Z,100.00
2024-03-10T03:44:05.652Z,100.00
2024-03-10T03:46:34.736Z,100.00
2024-03-10T03:49:03.047Z,100.00
2024-03-10T03:51:31.244Z,100.00
2024-03-10T03:53:59.490Z,100.00
2024-03-10T03:56:28.150Z,100.00
2024-03-10T03:58:56.450Z,100.00
2024-03-10T04:01:24.960Z,100.00
2024-03-10T04:03:53.352Z,100.00
2024-03-10T04:06:21.504Z,100.00
2024-03-10T04:08:50.300Z,100.00
2024-03-10T04:11:18.634Z,100.00
2024-03-10T04:13:47.871Z,100.00
2024-03-10T04:16:16.175Z,100.00
2024-03-10T04:18:44.622Z,100.00
2024-03-10T04:21:13.609Z,100.00
2024-03-10T04:23:42.130Z,100.00
2024-03-10T04:26:10.702Z,100.00
2024-03-10T04:28:40.051Z,100.00
2024-03-10T04:31:08.512Z,100.00
2024-03-10T04:33:37.515Z,100.00
2024-03-10T04:36:05.935Z,100.00
2024-03-10T04:38:34.454Z,100.00
2024-03-10T04:41:02.724Z,100.00
2024-03-10T04:43:31.103Z,100.00
2024-03-10T04:45:59.322Z,100.00
2024-03-10T04:48:28.688Z,100.00
2024-03-10T04:50:57.365Z,100.00
2024-03-10T04:53:25.740Z,100.00
2024-03-10T04:55:54.238Z,100.00
2024-03-10T04:58:23.577Z,100.00
2024-03-10T05:00:51.918Z,100.00
2024-03-10T05:03:21.880Z,100.00
2024-03-10T05:05:50.232Z,100.00
2024-03-10T05:08:18.604Z,100.00
2024-03-10T05:10:48.222Z,100.00
2024-03-10T05:13:16.663Z,100.00
2024-03-10T05:15:45.005Z,100.00
2024-03-10T05:18:13.354Z,100.00
2024-03-10T05:20:41.628Z,100.00
2024-03-10T05:23:09.880Z,100.00
2024-03-10T05:25:40.881Z,100.00
2024-03-10T05:28:10.903Z,100.00
2024-03-10T05:30:39.328Z,100.00
2024-03-10T05:33:07.584Z,100.00
2024-03-10T05:35:36.725Z,100.00
2024-03-10T05:38:05.717Z,100.00
2024-03-10T05:40:33.917Z,100.00
2024-03-10T05:43:02.128Z,100.00
2024-03-10T05:45:30.455Z,100.00
2024-03-10T05:47:58.742Z,100.00
2024-03-10T05:50:27.448Z,100.00
2024-03-10T05:52:55.787Z,100.00
2024-03-10T05:55:24.041Z,100.00
2024-03-10T05:57:52.756Z,100.00
2024-03-10T06:00:20.993Z,100.00
2024-03-10T06:02:49.957Z,100.00
2024-03-10T06:05:18.284Z,100.00
2024-03-10T06:07:46.922Z,100.00
2024-03-10T06:10:15.203Z,100.00
2024-03-10T06:12:44.051Z,100.00
2024-03-10T06:15:13.216Z,100.00
2024-03-10T06:17:52.600Z,100.00
2024-03-10T06:20:39.656Z,100.00
2024-03-10T06:23:26.506Z,100.00
2024-03-10T06:25:54.878Z,100.00
2024-03-10T06:28:23.808Z,100.00
2024-03-10T06:30:52.216Z,100.00
2024-03-10T06:33:21.985Z,100.00
2024-03-10T06:35:50.348Z,100.00
2024-03-10T06:38:20.286Z,100.00
2024-03-10T06:40:48.742Z,100.00
2024-03-10T06:43:17.127Z,100.00
2024-03-10T06:45:45.466Z,100.00
2024-03-10T06:48:15.207Z,100.00
2024-03-10T06:50:47.799Z,100.00
2024-03-10T06:53:16.786Z,100.00
2024-03-10T06:55:45.994Z,100.00
2024-03-10T06:58:14.554Z,100.00
2024-03-10T07:00:43.295Z,100.00
2024-03-10T07:03:12.709Z,100.00
2024-03-10T07:05:41.203Z,100.00
2024-03-10T07:08:10.574Z,100.00
2024-03-10T07:10:39.518Z,100.00
2024-03-10T07:13:09.640Z,100.00
2024-03-10T07:15:38.131Z,100.00
2024-03-10T07:18:07.050Z,100.00
2024-03-10T07:20:35.696Z,100.00
2024-03-10T07:23:04.103Z,100.00
2024-03-10T07:25:36.708Z,100.00
2024-03-10T07:28:06.087Z,100.00
2024-03-10T07:30:35.561Z,100.00
2024-03-10T07:33:04.547Z,100.00
2024-03-10T07:35:32.789Z,100.00
2024-03-10T07:38:02.276Z,100.00
2024-03-10T07:40:30.782Z,100.00
2024-03-10T07:42:59.510Z,100.00
2024-03-10T07:45:27.837Z,100.00
2024-03-10T07:47:57.558Z,100.00
2024-03-10T07:50:25.921Z,100.00
2024-03-10T07:52:54.395Z,100.00
2024-03-10T07:55:23.807Z,100.00
2024-03-10T07:57:52.148Z,100.00
2024-03-10T08:00:24.083Z,100.00
2024-03-10T08:02:55.439Z,100.00
2024-03-10T08:05:23.781Z,100.00
2024-03-10T08:07:53.406Z,100.00
2024-03-10T08:10:22.678Z,100.00
2024-03-10T08:12:50.982Z,100.00
2024-03-10T08:15:19.499Z,100.00
2024-03-10T08:17:47.922Z,100.00
2024-03-10T08:20:17.060Z,100.00
2024-03-10T08:22:47.068Z,100.00
2024-03-10T08:25:15.683Z,100.00
2024-03-10T08:27:45.114Z,100.00
2024-03-10T08:30:17.747Z,100.00
2024-03-10T08:32:46.645Z,100.00
2024-03-10T08:35:17.415Z,100.00
2024-03-10T08:37:47.224Z,100.00
2024-03-10T08:40:19.083Z,100.00
2024-03-10T08:42:47.922Z,100.00
2024-03-10T08:45:16.230Z,100.00
2024-03-10T08:47:47.525Z,100.00
2024-03-10T08:50:16.425Z,100.00
2024-03-10T08:52:45.023Z,100.00
2024-03-10T08:55:17.434Z,100.00
2024-03-10T08:57:45.839Z,100.00
2024-03-10T09:00:15.417Z,100.00
2024-03-10T09:02:43.763Z,100.00
2024-03-10T09:05:14.526Z,100.00
2024-03-10T09:07:44.330Z,100.00
2024-03-10T09:10:12.527Z,100.00
2024-03-10T09:12:41.164Z,100.00
2024-03-10T09:15:14.277Z,100.00
2024-03-10T09:17:46.642Z,100.00
2024-03-10T09:20:15.606Z,100.00
2024-03-10T09:22:45.905Z,100.00
2024-03-10T09:25:23.609Z,100.00
2024-03-10T09:27:54.988Z,100.00
2024-03-10T09:30:25.453Z,100.00
2024-03-10T09:32:56.185Z,100.00
2024-03-10T09:35:37.061Z,100.00
2024-03-10T09:38:08.396Z,100.00
2024-03-10T09:40:36.863Z,100.00
2024-03-10T09:43:07.108Z,100.00
2024-03-10T09:45:48.075Z,100.00
2024-03-10T09:48:17.278Z,100.00
2024-03-10T09:50:50.730Z,100.00
2024-03-10T09:53:19.987Z,100.00
2024-03-10T09:55:54.294Z,100.00
2024-03-10T09:58:40.702Z,100.00
2024-03-10T10:01:14.153Z,100.00
2024-03-10T10:03:45.672Z,100.00
2024-03-10T10:06:15.360Z,100.00
2024-03-10T10:08:44.188Z,100.00
2024-03-10T10:11:15.064Z,100.00
2024-03-10T10:13:43.994Z,100.00
2024-03-10T10:16:12.554Z,100.00
2024-03-10T10:18:51.149Z,100.00
2024-03-10T10:21:28.562Z,100.00
2024-03-10T10:23:59.213Z,100.00
2024-03-10T10:26:27.873Z,100.00
2024-03-10T10:29:11.437Z,100.00
2024-03-10T10:31:39.948Z,100.00
2024-03-10T10:34:16.949Z,100.00
2024-03-10T10:36:46.808Z,100.00
2024-03-10T10:39:19.192Z,100.00
2024-03-10T10:41:47.448Z,99.61
2024-03-10T10:44:16.567Z,99.55
2024-03-10T10:46:45.877Z,99.16
2024-03-10T10:49:14.991Z,96.93
2024-03-10T10:51:48.269Z,96.67
2024-03-10T10:54:16.876Z,96.12
2024-03-10T10:56:45.658Z,96.94
2024-03-10T10:59:14.644Z,95.69
2024-03-10T11:01:47.063Z,96.18
2024-03-10T11:04:22.705Z,95.35
2024-03-10T11:06:55.569Z,95.70
2024-03-10T11:09:32.337Z,95.57
2024-03-10T11:12:24.842Z,95.71
2024-03-10T11:14:55.084Z,95.17
2024-03-10T11:17:24.340Z,92.01
2024-03-10T11:19:55.445Z,92.62
2024-03-10T11:22:29.484Z,91.62
2024-03-10T11:25:18.308Z,92.38
2024-03-10T11:27:48.447Z,93.09
2024-03-10T11:30:41.853Z,93.00
2024-03-10T11:33:12.982Z,94.16
2024-03-10T11:35:42.541Z,94.31
2024-03-10T11:38:13.586Z,93.77
2024-03-10T11:40:43.963Z,94.59
2024-03-10T11:43:15.403Z,95.13
2024-03-10T11:45:44.126Z,94.84
2024-03-10T11:48:12.378Z,95.11
2024-03-10T11:50:42.445Z,94.00
2024-03-10T11:53:10.906Z,93.67
2024-03-10T11:55:39.098Z,94.01
2024-03-10T11:58:07.317Z,94.36
2024-03-10T12:00:36.954Z,95.32
2024-03-10T12:03:06.336Z,94.74
2024-03-10T12:05:35.018Z,94.15
2024-03-10T12:08:06.988Z,93.47
2024-03-10T12:10:35.955Z,93.77
2024-03-10T12:13:04.373Z,93.33
2024-03-10T12:15:34.655Z,93.27
2024-03-10T12:18:03.090Z,93.23
2024-03-10T12:20:31.662Z,93.34
2024-03-10T12:23:01.506Z,92.26
2024-03-10T12:25:33.013Z,92.33
2024-03-10T12:28:02.462Z,92.35
2024-03-10T12:30:32.767Z,92.12
2024-03-10T12:33:05.735Z,91.51
2024-03-10T12:35:33.983Z,90.67
2024-03-10T12:38:03.535Z,88.46
2024-03-10T12:40:35.667Z,86.70
2024-03-10T12:43:04.384Z,84.42
2024-03-10T12:45:32.611Z,83.75
2024-03-10T12:48:01.024Z,82.86
2024-03-10T12:50:29.432Z,82.85
2024-03-10T12:52:58.610Z,81.37
2024-03-10T12:55:26.996Z,80.01
2024-03-10T12:57:58.045Z,79.07
2024-03-10T13:00:30.738Z,78.98
2024-03-10T13:03:00.261Z,78.97
2024-03-10T13:05:31.638Z,77.76
2024-03-10T13:08:02.759Z,77.69
2024-03-10T13:10:34.100Z,76.62
2024-03-10T13:13:03.636Z,76.33
2024-03-10T13:15:32.930Z,75.49
2024-03-10T13:18:01.229Z,74.98
2024-03-10T13:20:29.628Z,75.76
2024-03-10T13:22:58.026Z,75.43
2024-03-10T13:25:28.634Z,74.53
2024-03-10T13:27:56.853Z,74.41
2024-03-10T13:30:26.762Z,74.43
2024-03-10T13:32:55.163Z,74.91
2024-03-10T13:35:23.606Z,75.64
2024-03-10T13:37:51.989Z,76.57
2024-03-10T13:40:21.692Z,78.04
2024-03-10T13:42:51.179Z,78.52
2024-03-10T13:45:27.877Z,80.62
2024-03-10T13:48:06.736Z,82.98
2024-03-10T13:50:36.890Z,84.84
2024-03-10T13:53:11.207Z,86.36
2024-03-10T13:55:40.892Z,88.74
2024-03-10T13:58:13.882Z,90.38
2024-03-10T14:00:42.385Z,91.69
2024-03-10T14:03:11.692Z,92.35
2024-03-10T14:05:40.401Z,94.00
2024-03-10T14:08:08.647Z,94.87
2024-03-10T14:10:37.137Z,95.79
2024-03-10T14:13:05.341Z,96.18
2024-03-10T14:15:41.070Z,97.10
2024-03-10T14:18:10.215Z,97.25
2024-03-10T14:20:38.831Z,98.00
2024-03-10T14:23:07.226Z,98.29
2024-03-10T14:25:36.141Z,99.20
2024-03-10T14:28:05.043Z,99.97
2024-03-10T14:30:33.256Z,99.90
2024-03-10T14:33:04.756Z,99.96
2024-03-10T14:35:33.403Z,99.92
2024-03-10T14:38:02.275Z,99.99
2024-03-10T14:40:30.931Z,100.00
2024-03-10T14:43:00.257Z,100.00
2024-03-10T14:45:31.065Z,100.00
2024-03-10T14:47:59.559Z,100.00
2024-03-10T14:50:31.350Z,100.00
2024-03-10T14:52:59.781Z,100.00
2024-03-10T14:55:28.590Z,100.00
2024-03-10T14:58:02.074Z,99.88
2024-03-10T15:00:39.681Z,100.00
2024-03-10T15:03:11.577Z,99.81
2024-03-10T15:05:45.389Z,96.98
2024-03-10T15:08:18.470Z,94.56
2024-03-10T15:10:58.782Z,91.80
2024-03-10T15:13:27.063Z,89.95
2024-03-10T15:15:56.615Z,89.71
2024-03-10T15:18:26.027Z,89.75
2024-03-10T15:20:56.242Z,89.51
2024-03-10T15:23:25.148Z,88.75
2024-03-10T15:25:55.400Z,88.11
2024-03-10T15:28:23.910Z,88.09
2024-03-10T15:30:53.131Z,88.25
2024-03-10T15:33:21.653Z,88.50
2024-03-10T15:35:51.096Z,89.28
2024-03-10T15:38:20.598Z,92.01
2024-03-10T15:40:51.287Z,95.92
2024-03-10T15:43:19.748Z,99.59
2024-03-10T15:45:48.860Z,100.00
2024-03-10T15:48:17.986Z,100.00
2024-03-10T15:50:46.538Z,100.00
2024-03-10T15:53:14.872Z,100.00
2024-03-10T15:55:44.466Z,100.00
2024-03-10T15:58:13.368Z,100.00
2024-03-10T16:00:42.995Z,100.00
2024-03-10T16:03:31.106Z,100.00
2024-03-10T16:06:00.127Z,100.00
2024-03-10T16:08:31.867Z,100.00
2024-03-10T16:11:01.107Z,100.00
2024-03-10T16:13:35.248Z,100.00
2024-03-10T16:16:04.396Z,100.00
2024-03-10T16:18:35.302Z,100.00
2024-03-10T16:21:05.343Z,100.00
2024-03-10T16:23:34.304Z,100.00
2024-03-10T16:26:02.867Z,100.00
2024-03-10T16:28:31.374Z,100.00
2024-03-10T16:30:59.598Z,100.00
2024-03-10T16:33:27.898Z,100.00
2024-03-10T16:35:57.319Z,100.00
2024-03-10T16:38:25.703Z,100.00
2024-03-10T16:40:55.168Z,100.00
2024-03-10T16:43:23.724Z,100.00
2024-03-10T16:45:52.231Z,100.00
2024-03-10T16:48:20.747Z,100.00
2024-03-10T16:50:50.975Z,100.00
2024-03-10T16:53:21.379Z,100.00
2024-03-10T16:55:51.033Z,100.00
2024-03-10T16:58:20.793Z,100.00
2024-03-10T17:00:50.171Z,100.00
2024-03-10T17:03:18.601Z,100.00
2024-03-10T17:05:46.982Z,100.00
2024-03-10T17:08:17.204Z,100.00
2024-03-10T17:10:48.525Z,100.00
2024-03-10T17:13:19.084Z,100.00
2024-03-10T17:15:48.225Z,100.00
2024-03-10T17:18:16.838Z,100.00
2024-03-10T17:20:45.197Z,100.00
2024-03-10T17:23:14.433Z,100.00
2024-03-10T17:25:42.714Z,100.00
2024-03-10T17:28:11.052Z,100.00
2024-03-10T17:30:39.261Z,100.00
2024-03-10T17:33:07.521Z,100.00
2024-03-10T17:35:36.003Z,100.00
2024-03-10T17:38:05.864Z,100.00
2024-03-10T17:40:34.360Z,100.00
2024-03-10T17:43:02.564Z,100.00
2024-03-10T17:45:30.786Z,100.00
2024-03-10T17:48:00.857Z,100.00
2024-03-10T17:50:31.268Z,100.00
2024-03-10T17:52:59.578Z,100.00
2024-03-10T17:55:27.886Z,100.00
2024-03-10T17:57:56.106Z,100.00
2024-03-10T18:00:24.336Z,100.00
2024-03-10T18:02:52.694Z,100.00
2024-03-10T18:05:22.078Z,100.00
2024-03-10T18:07:53.261Z,100.00
2024-03-10T18:10:22.795Z,100.00
2024-03-10T18:12:52.654Z,100.00
2024-03-10T18:15:22.357Z,100.00
2024-03-10T18:17:52.248Z,100.00
2024-03-10T18:20:21.921Z,100.00
2024-03-10T18:22:51.016Z,100.00
2024-03-10T18:25:20.171Z,100.00
2024-03-10T18:27:48.491Z,100.00
2024-03-10T18:30:17.518Z,100.00
2024-03-10T18:32:45.863Z,100.00
2024-03-10T18:35:17.526Z,100.00
2024-03-10T18:37:46.327Z,100.00
2024-03-10T18:40:15.857Z,100.00
2024-03-10T18:42:45.439Z,100.00
2024-03-10T18:45:14.925Z,100.00
2024-03-10T18:47:43.605Z,100.00
2024-03-10T18:50:13.022Z,100.00
2024-03-10T18:52:43.159Z,100.00
2024-03-10T18:55:12.618Z,100.00
2024-03-10T18:57:42.405Z,100.00
2024-03-10T19:00:13.649Z,100.00
2024-03-10T19:02:42.857Z,100.00
2024-03-10T19:05:13.249Z,100.00
2024-03-10T19:07:42.622Z,100.00
2024-03-10T19:10:11.636Z,100.00
2024-03-10T19:12:45.008Z,100.00
2024-03-10T19:15:13.682Z,100.00
2024-03-10T19:17:42.797Z,100.00
2024-03-10T19:20:18.979Z,100.00
2024-03-10T19:22:57.554Z,100.00
2024-03-10T19:25:27.948Z,100.00
2024-03-10T19:27:56.456Z,100.00
2024-03-10T19:30:27.992Z,100.00
2024-03-10T19:32:56.207Z,100.00
2024-03-10T19:35:24.815Z,100.00
2024-03-10T19:37:53.326Z,100.00
2024-03-10T19:40:21.679Z,100.00
2024-03-10T19:42:51.868Z,100.00
2024-03-10T19:45:22.278Z,100.00
2024-03-10T19:47:51.171Z,100.00
2024-03-10T19:50:19.944Z,100.00
2024-03-10T19:52:51.708Z,100.00
2024-03-10T19:55:19.925Z,100.00
2024-03-10T19:57:48.180Z,100.00
2024-03-10T20:00:17.022Z,100.00
2024-03-10T20:02:46.929Z,100.00
2024-03-10T20:05:16.687Z,100.00
2024-03-10T20:07:50.053Z,100.00
2024-03-10T20:10:21.810Z,100.00
2024-03-10T20:12:52.800Z,100.00
2024-03-10T20:15:21.234Z,100.00
2024-03-10T20:17:51.105Z,100.00
2024-03-10T20:20:26.977Z,100.00
2024-03-10T20:22:59.897Z,100.00
2024-03-10T20:25:29.205Z,100.00
2024-03-10T20:27:59.059Z,100.00
2024-03-10T20:30:31.475Z,100.00
2024-03-10T20:33:00.649Z,100.00
2024-03-10T20:35:29.424Z,100.00
2024-03-10T20:37:58.044Z,100.00
2024-03-10T20:40:26.421Z,100.00
2024-03-10T20:42:54.660Z,100.00
2024-03-10T20:45:23.766Z,100.00
2024-03-10T20:47:52.301Z,100.00
2024-03-10T20:50:24.933Z,100.00
2024-03-10T20:52:54.573Z,100.00
2024-03-10T20:55:23.098Z,100.00
2024-03-10T20:57:53.050Z,100.00
2024-03-10T21:00:23.784Z,100.00
2024-03-10T21:02:53.309Z,100.00
2024-03-10T21:05:23.355Z,100.00
2024-03-10T21:07:53.951Z,100.00
2024-03-10T21:10:25.814Z,100.00
2024-03-10T21:12:54.362Z,100.00
2024-03-10T21:15:24.233Z,100.00
2024-03-10T21:17:54.288Z,100.00
2024-03-10T21:20:24.940Z,100.00
2024-03-10T21:22:53.969Z,100.00
2024-03-10T21:25:24.697Z,100.00
2024-03-10T21:27:54.248Z,100.00
2024-03-10T21:30:22.842Z,100.00
2024-03-10T21:32:51.577Z,100.00
2024-03-10T21:35:24.210Z,100.00
2024-03-10T21:37:53.369Z,100.00
2024-03-10T21:40:21.938Z,100.00
2024-03-10T21:42:50.463Z,100.00
2024-03-10T21:45:18.986Z,100.00
2024-03-10T21:47:47.387Z,100.00
2024-03-10T21:50:16.449Z,100.00
2024-03-10T21:52:45.605Z,100.00
2024-03-10T21:55:14.406Z,100.00
2024-03-10T21:57:43.403Z,100.00
2024-03-10T22:00:16.458Z,100.00
2024-03-10T22:02:46.741Z,100.00
2024-03-10T22:05:16.231Z,100.00
2024-03-10T22:07:45.735Z,100.00
2024-03-10T22:10:15.316Z,100.00
2024-03-10T22:12:45.593Z,100.00
2024-03-10T22:15:17.774Z,100.00
2024-03-10T22:17:55.639Z,100.00
2024-03-10T22:20:26.287Z,100.00
2024-03-10T22:22:56.580Z,100.00
2024-03-10T22:25:27.331Z,100.00
2024-03-10T22:27:56.080Z,100.00
2024-03-10T22:30:31.491Z,100.00
2024-03-10T22:33:00.400Z,100.00
2024-03-10T22:35:28.886Z,100.00
2024-03-10T22:37:57.370Z,100.00
2024-03-10T22:40:25.897Z,100.00
2024-03-10T22:42:55.159Z,100.00
2024-03-10T22:45:30.554Z,100.00
2024-03-10T22:48:02.354Z,100.00
2024-03-10T22:50:31.694Z,100.00
2024-03-10T22:53:07.397Z,100.00
2024-03-10T22:55:36.553Z,100.00
2024-03-10T22:58:05.868Z,100.00
2024-03-10T23:00:36.042Z,100.00
2024-03-10T23:03:08.395Z,100.00
2024-03-10T23:05:37.771Z,100.00
2024-03-10T23:08:10.218Z,100.00
2024-03-10T23:10:40.709Z,100.00
2024-03-10T23:13:10.872Z,100.00
2024-03-10T23:15:39.347Z,100.00
2024-03-10T23:18:08.162Z,100.00
2024-03-10T23:20:39.262Z,100.00
2024-03-10T23:23:07.990Z,100.00
2024-03-10T23:25:36.754Z,100.00
2024-03-10T23:28:08.489Z,100.00
2024-03-10T23:30:39.125Z,100.00
2024-03-10T23:33:07.819Z,100.00
2024-03-10T23:35:36.231Z,100.00
2024-03-10T23:38:07.038Z,100.00
2024-03-10T23:40:35.665Z,100.00
2024-03-10T23:43:03.951Z,100.00
2024-03-10T23:45:34.738Z,100.00
2024-03-10T23:48:04.213Z,100.00
2024-03-10T23:50:33.263Z,100.00
2024-03-10T23:53:04.827Z,100.00
2024-03-10T23:55:44.524Z,100.00
2024-03-10T23:58:13.601Z,100.00
